Aviation Digital Data Service (ADDS)

Output produced by METARs form (1332 UTC 16 August 2017)
found at http://aviationweather.gov/adds/metars/
 
KJAX 161120Z 1612/1712 29006KT P6SM SCT025 
     FM162100 14009KT P6SM BKN045 
     FM170000 18006KT P6SM SCT050 SCT250 
     FM170400 25003KT P6SM FEW250